sensor_id;sensor_type;location;lat;lon;timestamp;P1;durP1;ratioP1;P2;durP2;ratioP2
71298;SDS011;59083;47.974;21.722;2022-12-24T00:00:16;315.13;;;33.80;;
71298;SDS011;59083;47.974;21.722;2022-12-24T00:03:18;194.27;;;32.92;;
71298;SDS011;59083;47.974;21.722;2022-12-24T00:06:20;211.23;;;31.42;;
71298;SDS011;59083;47.974;21.722;2022-12-24T00:09:23;239.52;;;33.47;;
71298;SDS011;59083;47.974;21.722;2022-12-24T00:12:24;183.43;;;32.10;;
71298;SDS011;59083;47.974;21.722;2022-12-24T00:15:26;190.40;;;31.30;;
71298;SDS011;59083;47.974;21.722;2022-12-24T00:18:27;173.15;;;30.85;;
71298;SDS011;59083;47.974;21.722;2022-12-24T00:21:28;153.12;;;32.30;;
71298;SDS011;59083;47.974;21.722;2022-12-24T00:24:29;124.40;;;30.15;;
71298;SDS011;59083;47.974;21.722;2022-12-24T00:27:31;137.63;;;30.13;;
71298;SDS011;59083;47.974;21.722;2022-12-24T00:30:32;124.10;;;29.40;;
71298;SDS011;59083;47.974;21.722;2022-12-24T00:33:33;123.57;;;29.90;;
71298;SDS011;59083;47.974;21.722;2022-12-24T00:36:34;155.70;;;30.60;;
71298;SDS011;59083;47.974;21.722;2022-12-24T00:39:35;113.10;;;28.27;;
71298;SDS011;59083;47.974;21.722;2022-12-24T00:42:36;108.43;;;28.80;;
71298;SDS011;59083;47.974;21.722;2022-12-24T00:45:38;105.03;;;28.47;;
71298;SDS011;59083;47.974;21.722;2022-12-24T00:48:39;117.70;;;30.15;;
71298;SDS011;59083;47.974;21.722;2022-12-24T00:51:40;128.85;;;28.73;;
71298;SDS011;59083;47.974;21.722;2022-12-24T00:54:41;94.60;;;27.42;;
71298;SDS011;59083;47.974;21.722;2022-12-24T00:57:43;111.03;;;27.33;;
71298;SDS011;59083;47.974;21.722;2022-12-24T01:00:44;112.57;;;31.10;;
71298;SDS011;59083;47.974;21.722;2022-12-24T01:03:45;111.97;;;27.58;;
71298;SDS011;59083;47.974;21.722;2022-12-24T01:06:47;94.87;;;26.95;;
71298;SDS011;59083;47.974;21.722;2022-12-24T01:09:48;107.43;;;27.77;;
71298;SDS011;59083;47.974;21.722;2022-12-24T01:12:49;110.10;;;29.10;;
71298;SDS011;59083;47.974;21.722;2022-12-24T01:15:50;88.00;;;27.37;;
71298;SDS011;59083;47.974;21.722;2022-12-24T01:18:52;91.22;;;28.40;;
71298;SDS011;59083;47.974;21.722;2022-12-24T01:21:53;74.40;;;26.70;;
71298;SDS011;59083;47.974;21.722;2022-12-24T01:24:54;87.35;;;26.98;;
71298;SDS011;59083;47.974;21.722;2022-12-24T01:27:56;90.33;;;27.80;;
71298;SDS011;59083;47.974;21.722;2022-12-24T01:30:57;81.03;;;25.83;;
71298;SDS011;59083;47.974;21.722;2022-12-24T01:33:58;70.80;;;25.62;;
71298;SDS011;59083;47.974;21.722;2022-12-24T01:36:59;82.18;;;26.85;;
71298;SDS011;59083;47.974;21.722;2022-12-24T01:40:01;74.60;;;26.27;;
71298;SDS011;59083;47.974;21.722;2022-12-24T01:43:21;69.67;;;23.80;;
71298;SDS011;59083;47.974;21.722;2022-12-24T01:46:28;68.53;;;25.57;;
71298;SDS011;59083;47.974;21.722;2022-12-24T01:49:32;68.62;;;24.98;;
71298;SDS011;59083;47.974;21.722;2022-12-24T01:52:34;65.40;;;24.75;;
71298;SDS011;59083;47.974;21.722;2022-12-24T01:55:35;61.05;;;24.25;;
71298;SDS011;59083;47.974;21.722;2022-12-24T01:58:37;58.47;;;23.90;;
71298;SDS011;59083;47.974;21.722;2022-12-24T02:01:41;56.93;;;23.60;;
71298;SDS011;59083;47.974;21.722;2022-12-24T02:08:09;55.83;;;22.15;;
71298;SDS011;59083;47.974;21.722;2022-12-24T02:11:15;48.03;;;21.37;;
71298;SDS011;59083;47.974;21.722;2022-12-24T02:14:26;45.70;;;21.30;;
71298;SDS011;59083;47.974;21.722;2022-12-24T02:17:51;50.73;;;22.07;;
71298;SDS011;59083;47.974;21.722;2022-12-24T02:24:20;48.75;;;21.62;;
71298;SDS011;59083;47.974;21.722;2022-12-24T02:27:33;46.67;;;21.30;;
71298;SDS011;59083;47.974;21.722;2022-12-24T02:30:44;46.97;;;21.07;;
71298;SDS011;59083;47.974;21.722;2022-12-24T02:33:55;44.73;;;20.60;;
71298;SDS011;59083;47.974;21.722;2022-12-24T02:40:20;41.13;;;20.48;;
71298;SDS011;59083;47.974;21.722;2022-12-24T02:43:31;49.90;;;21.25;;
71298;SDS011;59083;47.974;21.722;2022-12-24T02:46:35;47.83;;;21.07;;
71298;SDS011;59083;47.974;21.722;2022-12-24T02:49:37;49.53;;;21.00;;
71298;SDS011;59083;47.974;21.722;2022-12-24T02:52:39;53.38;;;22.50;;
71298;SDS011;59083;47.974;21.722;2022-12-24T02:55:48;61.28;;;22.37;;
71298;SDS011;59083;47.974;21.722;2022-12-24T03:05:59;57.13;;;22.53;;
71298;SDS011;59083;47.974;21.722;2022-12-24T03:09:24;48.47;;;20.10;;
71298;SDS011;59083;47.974;21.722;2022-12-24T03:12:42;50.35;;;21.00;;
71298;SDS011;59083;47.974;21.722;2022-12-24T03:15:46;44.90;;;19.58;;
71298;SDS011;59083;47.974;21.722;2022-12-24T03:18:48;46.47;;;20.67;;
71298;SDS011;59083;47.974;21.722;2022-12-24T03:21:51;50.13;;;20.17;;
71298;SDS011;59083;47.974;21.722;2022-12-24T03:24:56;43.03;;;18.85;;
71298;SDS011;59083;47.974;21.722;2022-12-24T03:27:57;42.35;;;18.50;;
71298;SDS011;59083;47.974;21.722;2022-12-24T03:31:03;44.38;;;19.27;;
71298;SDS011;59083;47.974;21.722;2022-12-24T03:34:05;42.00;;;18.10;;
71298;SDS011;59083;47.974;21.722;2022-12-24T03:37:06;41.50;;;18.97;;
71298;SDS011;59083;47.974;21.722;2022-12-24T03:40:08;43.05;;;18.62;;
71298;SDS011;59083;47.974;21.722;2022-12-24T03:43:09;45.35;;;20.75;;
71298;SDS011;59083;47.974;21.722;2022-12-24T03:46:10;40.67;;;19.77;;
71298;SDS011;59083;47.974;21.722;2022-12-24T03:49:11;45.00;;;21.07;;
71298;SDS011;59083;47.974;21.722;2022-12-24T03:52:13;46.77;;;22.53;;
71298;SDS011;59083;47.974;21.722;2022-12-24T03:55:14;48.22;;;22.75;;
71298;SDS011;59083;47.974;21.722;2022-12-24T03:58:15;50.12;;;23.33;;
71298;SDS011;59083;47.974;21.722;2022-12-24T04:01:16;51.70;;;23.55;;
71298;SDS011;59083;47.974;21.722;2022-12-24T04:04:18;58.73;;;25.67;;
71298;SDS011;59083;47.974;21.722;2022-12-24T04:07:19;58.83;;;26.43;;
71298;SDS011;59083;47.974;21.722;2022-12-24T04:10:20;60.00;;;28.08;;
71298;SDS011;59083;47.974;21.722;2022-12-24T04:13:21;58.38;;;26.62;;
71298;SDS011;59083;47.974;21.722;2022-12-24T04:16:23;61.40;;;27.73;;
71298;SDS011;59083;47.974;21.722;2022-12-24T04:19:24;65.63;;;29.77;;
71298;SDS011;59083;47.974;21.722;2022-12-24T04:22:26;65.90;;;28.27;;
71298;SDS011;59083;47.974;21.722;2022-12-24T04:25:27;66.47;;;29.42;;
71298;SDS011;59083;47.974;21.722;2022-12-24T04:28:29;67.07;;;29.75;;
71298;SDS011;59083;47.974;21.722;2022-12-24T04:31:30;66.55;;;30.33;;
71298;SDS011;59083;47.974;21.722;2022-12-24T04:34:32;72.17;;;31.63;;
71298;SDS011;59083;47.974;21.722;2022-12-24T04:37:33;69.50;;;32.87;;
71298;SDS011;59083;47.974;21.722;2022-12-24T04:40:35;69.15;;;31.50;;
71298;SDS011;59083;47.974;21.722;2022-12-24T04:43:36;69.43;;;31.52;;
71298;SDS011;59083;47.974;21.722;2022-12-24T04:46:37;73.55;;;32.67;;
71298;SDS011;59083;47.974;21.722;2022-12-24T04:49:39;80.13;;;33.23;;
71298;SDS011;59083;47.974;21.722;2022-12-24T04:52:40;75.03;;;34.33;;
71298;SDS011;59083;47.974;21.722;2022-12-24T04:55:44;74.80;;;33.45;;
71298;SDS011;59083;47.974;21.722;2022-12-24T04:58:46;76.78;;;34.22;;
71298;SDS011;59083;47.974;21.722;2022-12-24T05:01:48;79.93;;;36.45;;
71298;SDS011;59083;47.974;21.722;2022-12-24T05:04:49;84.00;;;37.33;;
71298;SDS011;59083;47.974;21.722;2022-12-24T05:07:50;77.80;;;35.57;;
71298;SDS011;59083;47.974;21.722;2022-12-24T05:10:56;83.47;;;36.15;;
71298;SDS011;59083;47.974;21.722;2022-12-24T05:13:58;83.93;;;35.83;;
71298;SDS011;59083;47.974;21.722;2022-12-24T05:16:59;80.12;;;36.17;;
71298;SDS011;59083;47.974;21.722;2022-12-24T05:20:00;82.70;;;38.07;;
71298;SDS011;59083;47.974;21.722;2022-12-24T05:23:02;85.70;;;37.73;;
71298;SDS011;59083;47.974;21.722;2022-12-24T05:29:38;75.00;;;36.80;;
71298;SDS011;59083;47.974;21.722;2022-12-24T05:32:39;82.03;;;38.17;;
71298;SDS011;59083;47.974;21.722;2022-12-24T05:35:40;86.07;;;38.77;;
71298;SDS011;59083;47.974;21.722;2022-12-24T05:38:41;90.33;;;39.27;;
71298;SDS011;59083;47.974;21.722;2022-12-24T05:41:43;79.85;;;34.38;;
71298;SDS011;59083;47.974;21.722;2022-12-24T05:44:45;80.07;;;38.10;;
71298;SDS011;59083;47.974;21.722;2022-12-24T05:47:46;84.87;;;37.35;;
71298;SDS011;59083;47.974;21.722;2022-12-24T05:50:47;78.23;;;37.87;;
71298;SDS011;59083;47.974;21.722;2022-12-24T05:53:49;77.63;;;37.03;;
71298;SDS011;59083;47.974;21.722;2022-12-24T05:56:51;82.25;;;38.38;;
71298;SDS011;59083;47.974;21.722;2022-12-24T05:59:52;88.55;;;37.70;;
71298;SDS011;59083;47.974;21.722;2022-12-24T06:02:53;78.85;;;37.58;;
71298;SDS011;59083;47.974;21.722;2022-12-24T06:06:02;75.67;;;39.03;;
71298;SDS011;59083;47.974;21.722;2022-12-24T06:09:05;77.77;;;37.10;;
71298;SDS011;59083;47.974;21.722;2022-12-24T06:12:06;76.50;;;37.67;;
71298;SDS011;59083;47.974;21.722;2022-12-24T06:15:08;82.50;;;38.95;;
71298;SDS011;59083;47.974;21.722;2022-12-24T06:18:09;81.53;;;38.15;;
71298;SDS011;59083;47.974;21.722;2022-12-24T06:21:11;73.60;;;37.60;;
71298;SDS011;59083;47.974;21.722;2022-12-24T06:24:12;83.33;;;38.50;;
71298;SDS011;59083;47.974;21.722;2022-12-24T06:27:14;81.07;;;36.75;;
71298;SDS011;59083;47.974;21.722;2022-12-24T06:30:15;82.25;;;37.80;;
71298;SDS011;59083;47.974;21.722;2022-12-24T06:33:16;82.03;;;39.13;;
71298;SDS011;59083;47.974;21.722;2022-12-24T06:36:20;78.97;;;38.70;;
71298;SDS011;59083;47.974;21.722;2022-12-24T06:39:23;80.13;;;37.27;;
71298;SDS011;59083;47.974;21.722;2022-12-24T06:42:25;90.07;;;40.10;;
71298;SDS011;59083;47.974;21.722;2022-12-24T06:45:26;82.07;;;38.63;;
71298;SDS011;59083;47.974;21.722;2022-12-24T06:48:28;79.35;;;38.35;;
71298;SDS011;59083;47.974;21.722;2022-12-24T06:51:29;82.57;;;38.87;;
71298;SDS011;59083;47.974;21.722;2022-12-24T06:54:30;89.70;;;40.10;;
71298;SDS011;59083;47.974;21.722;2022-12-24T06:57:31;87.28;;;39.15;;
71298;SDS011;59083;47.974;21.722;2022-12-24T07:00:32;81.47;;;38.20;;
71298;SDS011;59083;47.974;21.722;2022-12-24T07:03:34;83.87;;;38.33;;
71298;SDS011;59083;47.974;21.722;2022-12-24T07:06:35;90.17;;;39.00;;
71298;SDS011;59083;47.974;21.722;2022-12-24T07:09:36;85.50;;;38.87;;
71298;SDS011;59083;47.974;21.722;2022-12-24T07:12:37;86.45;;;37.75;;
71298;SDS011;59083;47.974;21.722;2022-12-24T07:15:39;92.70;;;40.38;;
71298;SDS011;59083;47.974;21.722;2022-12-24T07:18:40;85.35;;;37.65;;
71298;SDS011;59083;47.974;21.722;2022-12-24T07:21:41;97.63;;;40.03;;
71298;SDS011;59083;47.974;21.722;2022-12-24T07:24:42;83.50;;;37.90;;
71298;SDS011;59083;47.974;21.722;2022-12-24T07:27:43;88.28;;;35.33;;
71298;SDS011;59083;47.974;21.722;2022-12-24T07:30:45;78.85;;;34.83;;
71298;SDS011;59083;47.974;21.722;2022-12-24T07:33:47;82.45;;;33.90;;
71298;SDS011;59083;47.974;21.722;2022-12-24T07:36:49;84.87;;;34.00;;
71298;SDS011;59083;47.974;21.722;2022-12-24T07:39:50;80.60;;;36.20;;
71298;SDS011;59083;47.974;21.722;2022-12-24T07:42:51;79.85;;;33.90;;
71298;SDS011;59083;47.974;21.722;2022-12-24T07:45:55;78.47;;;33.22;;
71298;SDS011;59083;47.974;21.722;2022-12-24T07:48:57;80.47;;;34.35;;
71298;SDS011;59083;47.974;21.722;2022-12-24T07:51:58;82.77;;;33.57;;
71298;SDS011;59083;47.974;21.722;2022-12-24T07:55:00;82.67;;;34.13;;
71298;SDS011;59083;47.974;21.722;2022-12-24T07:58:01;87.07;;;34.28;;
71298;SDS011;59083;47.974;21.722;2022-12-24T08:01:02;77.32;;;32.25;;
71298;SDS011;59083;47.974;21.722;2022-12-24T08:04:04;81.90;;;32.42;;
71298;SDS011;59083;47.974;21.722;2022-12-24T08:07:05;75.20;;;31.60;;
71298;SDS011;59083;47.974;21.722;2022-12-24T08:10:07;75.40;;;30.53;;
71298;SDS011;59083;47.974;21.722;2022-12-24T08:13:09;86.45;;;33.55;;
71298;SDS011;59083;47.974;21.722;2022-12-24T08:16:10;72.47;;;29.00;;
71298;SDS011;59083;47.974;21.722;2022-12-24T08:19:11;73.68;;;30.00;;
71298;SDS011;59083;47.974;21.722;2022-12-24T08:22:13;71.33;;;29.37;;
71298;SDS011;59083;47.974;21.722;2022-12-24T08:25:15;76.77;;;28.67;;
71298;SDS011;59083;47.974;21.722;2022-12-24T08:28:18;68.35;;;28.50;;
71298;SDS011;59083;47.974;21.722;2022-12-24T08:31:20;64.43;;;26.45;;
71298;SDS011;59083;47.974;21.722;2022-12-24T08:34:21;59.88;;;25.98;;
71298;SDS011;59083;47.974;21.722;2022-12-24T08:37:22;62.37;;;24.70;;
71298;SDS011;59083;47.974;21.722;2022-12-24T08:40:24;60.07;;;24.37;;
71298;SDS011;59083;47.974;21.722;2022-12-24T08:43:25;56.92;;;24.50;;
71298;SDS011;59083;47.974;21.722;2022-12-24T08:46:27;60.42;;;23.75;;
71298;SDS011;59083;47.974;21.722;2022-12-24T08:49:28;59.42;;;23.27;;
71298;SDS011;59083;47.974;21.722;2022-12-24T08:52:29;56.17;;;23.87;;
71298;SDS011;59083;47.974;21.722;2022-12-24T08:55:30;54.90;;;23.77;;
71298;SDS011;59083;47.974;21.722;2022-12-24T08:58:32;61.92;;;25.45;;
71298;SDS011;59083;47.974;21.722;2022-12-24T09:01:33;63.17;;;23.67;;
71298;SDS011;59083;47.974;21.722;2022-12-24T09:04:36;64.37;;;25.10;;
71298;SDS011;59083;47.974;21.722;2022-12-24T09:07:40;58.63;;;23.53;;
71298;SDS011;59083;47.974;21.722;2022-12-24T09:10:42;61.07;;;24.80;;
71298;SDS011;59083;47.974;21.722;2022-12-24T09:13:43;64.43;;;25.65;;
71298;SDS011;59083;47.974;21.722;2022-12-24T09:16:44;60.97;;;25.48;;
71298;SDS011;59083;47.974;21.722;2022-12-24T09:19:46;61.08;;;25.30;;
71298;SDS011;59083;47.974;21.722;2022-12-24T09:22:47;60.57;;;24.07;;
71298;SDS011;59083;47.974;21.722;2022-12-24T09:25:48;50.43;;;22.50;;
71298;SDS011;59083;47.974;21.722;2022-12-24T09:28:50;55.55;;;22.65;;
71298;SDS011;59083;47.974;21.722;2022-12-24T09:31:53;53.90;;;24.17;;
71298;SDS011;59083;47.974;21.722;2022-12-24T09:34:55;58.42;;;23.92;;
71298;SDS011;59083;47.974;21.722;2022-12-24T09:37:56;51.97;;;23.00;;
71298;SDS011;59083;47.974;21.722;2022-12-24T09:47:43;58.00;;;24.65;;
71298;SDS011;59083;47.974;21.722;2022-12-24T09:50:53;53.95;;;23.62;;
71298;SDS011;59083;47.974;21.722;2022-12-24T09:54:02;57.27;;;22.30;;
71298;SDS011;59083;47.974;21.722;2022-12-24T09:57:19;56.33;;;21.53;;
71298;SDS011;59083;47.974;21.722;2022-12-24T10:00:29;55.30;;;22.58;;
71298;SDS011;59083;47.974;21.722;2022-12-24T10:03:33;48.25;;;22.17;;
71298;SDS011;59083;47.974;21.722;2022-12-24T10:12:59;44.27;;;18.87;;
71298;SDS011;59083;47.974;21.722;2022-12-24T10:27:06;47.73;;;20.57;;
71298;SDS011;59083;47.974;21.722;2022-12-24T10:30:16;41.07;;;20.00;;
71298;SDS011;59083;47.974;21.722;2022-12-24T10:33:25;42.50;;;20.02;;
71298;SDS011;59083;47.974;21.722;2022-12-24T10:36:31;40.35;;;18.12;;
71298;SDS011;59083;47.974;21.722;2022-12-24T10:39:32;38.45;;;19.33;;
71298;SDS011;59083;47.974;21.722;2022-12-24T10:42:38;41.37;;;19.30;;
71298;SDS011;59083;47.974;21.722;2022-12-24T10:45:47;43.50;;;20.60;;
71298;SDS011;59083;47.974;21.722;2022-12-24T10:48:57;44.90;;;19.62;;
71298;SDS011;59083;47.974;21.722;2022-12-24T10:52:05;44.10;;;19.85;;
71298;SDS011;59083;47.974;21.722;2022-12-24T10:58:14;44.20;;;20.43;;
71298;SDS011;59083;47.974;21.722;2022-12-24T11:01:19;43.10;;;19.30;;
71298;SDS011;59083;47.974;21.722;2022-12-24T11:04:22;44.17;;;20.50;;
71298;SDS011;59083;47.974;21.722;2022-12-24T11:07:28;44.17;;;20.37;;
71298;SDS011;59083;47.974;21.722;2022-12-24T11:10:32;42.80;;;19.87;;
71298;SDS011;59083;47.974;21.722;2022-12-24T11:16:39;42.70;;;18.97;;
71298;SDS011;59083;47.974;21.722;2022-12-24T11:19:49;43.45;;;19.58;;
71298;SDS011;59083;47.974;21.722;2022-12-24T11:22:51;42.55;;;20.30;;
71298;SDS011;59083;47.974;21.722;2022-12-24T11:25:52;43.67;;;19.95;;
71298;SDS011;59083;47.974;21.722;2022-12-24T11:29:11;42.27;;;20.27;;
71298;SDS011;59083;47.974;21.722;2022-12-24T11:32:18;42.47;;;19.60;;
71298;SDS011;59083;47.974;21.722;2022-12-24T11:35:22;40.40;;;18.83;;
71298;SDS011;59083;47.974;21.722;2022-12-24T11:38:25;38.30;;;17.92;;
71298;SDS011;59083;47.974;21.722;2022-12-24T11:41:27;45.10;;;19.42;;
71298;SDS011;59083;47.974;21.722;2022-12-24T11:44:37;37.77;;;17.70;;
71298;SDS011;59083;47.974;21.722;2022-12-24T11:47:48;38.80;;;19.60;;
71298;SDS011;59083;47.974;21.722;2022-12-24T11:50:54;39.90;;;18.30;;
71298;SDS011;59083;47.974;21.722;2022-12-24T11:54:15;39.10;;;18.27;;
71298;SDS011;59083;47.974;21.722;2022-12-24T11:57:21;37.35;;;18.12;;
71298;SDS011;59083;47.974;21.722;2022-12-24T12:00:27;37.57;;;17.90;;
71298;SDS011;59083;47.974;21.722;2022-12-24T12:03:31;38.93;;;18.07;;
71298;SDS011;59083;47.974;21.722;2022-12-24T12:06:39;45.22;;;20.40;;
71298;SDS011;59083;47.974;21.722;2022-12-24T12:09:48;43.65;;;20.58;;
71298;SDS011;59083;47.974;21.722;2022-12-24T12:12:59;49.00;;;21.98;;
71298;SDS011;59083;47.974;21.722;2022-12-24T12:16:19;48.03;;;21.43;;
71298;SDS011;59083;47.974;21.722;2022-12-24T12:19:25;54.87;;;22.70;;
71298;SDS011;59083;47.974;21.722;2022-12-24T12:25:58;48.70;;;21.37;;
71298;SDS011;59083;47.974;21.722;2022-12-24T12:36:11;52.20;;;21.20;;
71298;SDS011;59083;47.974;21.722;2022-12-24T12:39:17;48.10;;;18.90;;
71298;SDS011;59083;47.974;21.722;2022-12-24T12:42:28;47.53;;;19.65;;
71298;SDS011;59083;47.974;21.722;2022-12-24T12:45:54;51.78;;;20.77;;
71298;SDS011;59083;47.974;21.722;2022-12-24T12:55:45;60.47;;;20.88;;
71298;SDS011;59083;47.974;21.722;2022-12-24T13:21:44;44.83;;;19.13;;
71298;SDS011;59083;47.974;21.722;2022-12-24T13:24:49;51.53;;;20.47;;
71298;SDS011;59083;47.974;21.722;2022-12-24T13:27:53;45.50;;;19.20;;
71298;SDS011;59083;47.974;21.722;2022-12-24T13:34:01;48.17;;;19.00;;
71298;SDS011;59083;47.974;21.722;2022-12-24T13:37:04;47.80;;;19.60;;
71298;SDS011;59083;47.974;21.722;2022-12-24T13:40:25;49.53;;;20.07;;
71298;SDS011;59083;47.974;21.722;2022-12-24T13:43:28;45.97;;;18.65;;
71298;SDS011;59083;47.974;21.722;2022-12-24T13:50:20;48.80;;;20.35;;
71298;SDS011;59083;47.974;21.722;2022-12-24T13:56:26;53.13;;;20.02;;
71298;SDS011;59083;47.974;21.722;2022-12-24T13:59:35;54.22;;;21.58;;
71298;SDS011;59083;47.974;21.722;2022-12-24T14:02:44;49.92;;;20.30;;
71298;SDS011;59083;47.974;21.722;2022-12-24T14:06:09;59.35;;;22.50;;
71298;SDS011;59083;47.974;21.722;2022-12-24T14:09:14;56.60;;;21.40;;
71298;SDS011;59083;47.974;21.722;2022-12-24T14:18:59;61.92;;;23.48;;
71298;SDS011;59083;47.974;21.722;2022-12-24T14:22:01;65.30;;;23.42;;
71298;SDS011;59083;47.974;21.722;2022-12-24T14:25:18;56.70;;;22.97;;
71298;SDS011;59083;47.974;21.722;2022-12-24T14:28:24;49.53;;;20.85;;
71298;SDS011;59083;47.974;21.722;2022-12-24T14:31:33;52.22;;;22.42;;
71298;SDS011;59083;47.974;21.722;2022-12-24T14:34:34;54.17;;;21.90;;
71298;SDS011;59083;47.974;21.722;2022-12-24T14:37:36;53.03;;;21.52;;
71298;SDS011;59083;47.974;21.722;2022-12-24T14:40:49;54.70;;;21.47;;
71298;SDS011;59083;47.974;21.722;2022-12-24T14:44:01;55.60;;;21.45;;
71298;SDS011;59083;47.974;21.722;2022-12-24T14:50:38;59.72;;;23.25;;
71298;SDS011;59083;47.974;21.722;2022-12-24T14:54:09;56.50;;;23.02;;
71298;SDS011;59083;47.974;21.722;2022-12-24T14:57:20;63.87;;;24.10;;
71298;SDS011;59083;47.974;21.722;2022-12-24T15:00:23;62.40;;;23.17;;
71298;SDS011;59083;47.974;21.722;2022-12-24T15:03:27;61.67;;;23.60;;
71298;SDS011;59083;47.974;21.722;2022-12-24T15:06:31;57.58;;;22.17;;
71298;SDS011;59083;47.974;21.722;2022-12-24T15:09:34;61.25;;;22.90;;
71298;SDS011;59083;47.974;21.722;2022-12-24T15:12:39;60.60;;;23.40;;
71298;SDS011;59083;47.974;21.722;2022-12-24T15:15:41;59.00;;;23.23;;
71298;SDS011;59083;47.974;21.722;2022-12-24T15:18:46;62.80;;;23.52;;
71298;SDS011;59083;47.974;21.722;2022-12-24T15:21:51;61.20;;;24.12;;
71298;SDS011;59083;47.974;21.722;2022-12-24T15:24:53;62.03;;;24.02;;
71298;SDS011;59083;47.974;21.722;2022-12-24T15:27:55;60.70;;;23.57;;
71298;SDS011;59083;47.974;21.722;2022-12-24T15:31:03;60.22;;;23.80;;
71298;SDS011;59083;47.974;21.722;2022-12-24T15:37:45;56.42;;;24.12;;
71298;SDS011;59083;47.974;21.722;2022-12-24T15:40:47;74.43;;;27.60;;
71298;SDS011;59083;47.974;21.722;2022-12-24T15:43:49;99.57;;;29.53;;
71298;SDS011;59083;47.974;21.722;2022-12-24T15:46:57;76.05;;;26.15;;
71298;SDS011;59083;47.974;21.722;2022-12-24T15:49:59;146.25;;;27.65;;
71298;SDS011;59083;47.974;21.722;2022-12-24T15:53:01;160.63;;;26.62;;
71298;SDS011;59083;47.974;21.722;2022-12-24T15:56:06;176.05;;;25.65;;
71298;SDS011;59083;47.974;21.722;2022-12-24T15:59:33;165.23;;;24.03;;
71298;SDS011;59083;47.974;21.722;2022-12-24T16:05:41;111.22;;;23.77;;
71298;SDS011;59083;47.974;21.722;2022-12-24T16:08:42;193.48;;;25.65;;
71298;SDS011;59083;47.974;21.722;2022-12-24T16:11:45;131.98;;;25.17;;
71298;SDS011;59083;47.974;21.722;2022-12-24T16:14:51;156.93;;;24.83;;
71298;SDS011;59083;47.974;21.722;2022-12-24T16:17:55;159.27;;;26.35;;
71298;SDS011;59083;47.974;21.722;2022-12-24T16:20:56;123.87;;;26.10;;
71298;SDS011;59083;47.974;21.722;2022-12-24T16:27:21;120.45;;;27.50;;
71298;SDS011;59083;47.974;21.722;2022-12-24T16:30:23;129.43;;;27.97;;
71298;SDS011;59083;47.974;21.722;2022-12-24T16:33:24;112.07;;;26.77;;
71298;SDS011;59083;47.974;21.722;2022-12-24T16:36:26;89.47;;;28.60;;
71298;SDS011;59083;47.974;21.722;2022-12-24T16:39:31;72.80;;;27.58;;
71298;SDS011;59083;47.974;21.722;2022-12-24T16:42:34;104.93;;;29.42;;
71298;SDS011;59083;47.974;21.722;2022-12-24T16:45:55;58.00;;;26.77;;
71298;SDS011;59083;47.974;21.722;2022-12-24T16:49:01;59.72;;;27.67;;
71298;SDS011;59083;47.974;21.722;2022-12-24T16:52:02;59.05;;;28.25;;
71298;SDS011;59083;47.974;21.722;2022-12-24T16:55:04;61.83;;;29.70;;
71298;SDS011;59083;47.974;21.722;2022-12-24T16:58:06;61.90;;;30.73;;
71298;SDS011;59083;47.974;21.722;2022-12-24T17:01:07;66.13;;;30.80;;
71298;SDS011;59083;47.974;21.722;2022-12-24T17:04:09;72.18;;;31.48;;
71298;SDS011;59083;47.974;21.722;2022-12-24T17:07:11;60.75;;;30.20;;
71298;SDS011;59083;47.974;21.722;2022-12-24T17:10:13;69.03;;;30.90;;
71298;SDS011;59083;47.974;21.722;2022-12-24T17:13:14;62.80;;;31.12;;
71298;SDS011;59083;47.974;21.722;2022-12-24T17:16:15;59.97;;;30.63;;
71298;SDS011;59083;47.974;21.722;2022-12-24T17:19:17;65.50;;;31.25;;
71298;SDS011;59083;47.974;21.722;2022-12-24T17:22:18;62.85;;;30.98;;
71298;SDS011;59083;47.974;21.722;2022-12-24T17:25:20;62.00;;;30.60;;
71298;SDS011;59083;47.974;21.722;2022-12-24T17:28:21;64.00;;;32.47;;
71298;SDS011;59083;47.974;21.722;2022-12-24T17:31:22;63.10;;;31.47;;
71298;SDS011;59083;47.974;21.722;2022-12-24T17:34:24;62.88;;;32.67;;
71298;SDS011;59083;47.974;21.722;2022-12-24T17:37:25;57.85;;;31.37;;
71298;SDS011;59083;47.974;21.722;2022-12-24T17:40:27;69.07;;;33.25;;
71298;SDS011;59083;47.974;21.722;2022-12-24T17:43:29;79.53;;;37.08;;
71298;SDS011;59083;47.974;21.722;2022-12-24T17:46:32;65.40;;;34.90;;
71298;SDS011;59083;47.974;21.722;2022-12-24T17:49:33;70.75;;;34.53;;
71298;SDS011;59083;47.974;21.722;2022-12-24T17:52:34;75.85;;;36.35;;
71298;SDS011;59083;47.974;21.722;2022-12-24T17:55:42;75.12;;;35.80;;
71298;SDS011;59083;47.974;21.722;2022-12-24T17:58:44;72.37;;;33.75;;
71298;SDS011;59083;47.974;21.722;2022-12-24T18:01:46;67.97;;;34.40;;
71298;SDS011;59083;47.974;21.722;2022-12-24T18:04:47;76.22;;;36.08;;
71298;SDS011;59083;47.974;21.722;2022-12-24T18:07:49;73.72;;;37.17;;
71298;SDS011;59083;47.974;21.722;2022-12-24T18:10:50;70.60;;;35.90;;
71298;SDS011;59083;47.974;21.722;2022-12-24T18:13:52;80.75;;;37.75;;
71298;SDS011;59083;47.974;21.722;2022-12-24T18:16:54;79.70;;;37.63;;
71298;SDS011;59083;47.974;21.722;2022-12-24T18:19:55;74.22;;;37.60;;
71298;SDS011;59083;47.974;21.722;2022-12-24T18:22:57;84.50;;;39.40;;
71298;SDS011;59083;47.974;21.722;2022-12-24T18:26:01;88.20;;;42.33;;
71298;SDS011;59083;47.974;21.722;2022-12-24T18:29:04;76.80;;;39.42;;
71298;SDS011;59083;47.974;21.722;2022-12-24T18:32:05;85.27;;;41.20;;
71298;SDS011;59083;47.974;21.722;2022-12-24T18:35:07;91.70;;;41.88;;
71298;SDS011;59083;47.974;21.722;2022-12-24T18:38:08;93.03;;;42.28;;
71298;SDS011;59083;47.974;21.722;2022-12-24T18:41:11;78.50;;;38.10;;
71298;SDS011;59083;47.974;21.722;2022-12-24T18:44:14;77.62;;;38.85;;
71298;SDS011;59083;47.974;21.722;2022-12-24T18:47:16;73.80;;;36.93;;
71298;SDS011;59083;47.974;21.722;2022-12-24T18:50:17;73.97;;;37.42;;
71298;SDS011;59083;47.974;21.722;2022-12-24T18:53:19;73.05;;;37.78;;
71298;SDS011;59083;47.974;21.722;2022-12-24T18:56:21;81.35;;;38.88;;
71298;SDS011;59083;47.974;21.722;2022-12-24T18:59:23;80.47;;;39.17;;
71298;SDS011;59083;47.974;21.722;2022-12-24T19:02:25;72.13;;;36.23;;
71298;SDS011;59083;47.974;21.722;2022-12-24T19:05:26;69.18;;;36.35;;
71298;SDS011;59083;47.974;21.722;2022-12-24T19:08:27;76.32;;;37.17;;
71298;SDS011;59083;47.974;21.722;2022-12-24T19:11:30;73.60;;;36.25;;
71298;SDS011;59083;47.974;21.722;2022-12-24T19:14:33;74.32;;;37.17;;
71298;SDS011;59083;47.974;21.722;2022-12-24T19:17:34;75.57;;;36.30;;
71298;SDS011;59083;47.974;21.722;2022-12-24T19:20:38;73.53;;;36.80;;
71298;SDS011;59083;47.974;21.722;2022-12-24T19:23:40;66.10;;;34.70;;
71298;SDS011;59083;47.974;21.722;2022-12-24T19:26:41;62.10;;;32.80;;
71298;SDS011;59083;47.974;21.722;2022-12-24T19:29:42;67.32;;;34.08;;
71298;SDS011;59083;47.974;21.722;2022-12-24T19:32:43;66.53;;;34.13;;
71298;SDS011;59083;47.974;21.722;2022-12-24T19:35:45;62.25;;;33.25;;
71298;SDS011;59083;47.974;21.722;2022-12-24T19:38:46;61.42;;;32.90;;